createdAt,value
2017-10-10T00:00:38.275Z,100176.89
2017-10-10T00:03:39.959Z,100178.08
2017-10-10T00:06:42.190Z,100178.01
2017-10-10T00:09:43.727Z,100163.38
2017-10-10T00:12:45.324Z,100174.73
2017-10-10T00:15:46.861Z,100170.31
2017-10-10T00:18:48.422Z,100161.59
2017-10-10T00:21:49.952Z,100155.60
2017-10-10T00:24:51.505Z,100155.77
2017-10-10T00:27:52.995Z,100153.48
2017-10-10T00:30:54.640Z,100161.04
2017-10-10T00:33:56.197Z,100154.08
2017-10-10T00:36:57.717Z,100159.55
2017-10-10T00:39:59.268Z,100146.47
2017-10-10T00:43:00.809Z,100128.63
2017-10-10T00:46:02.356Z,100139.07
2017-10-10T00:49:04.642Z,100140.43
2017-10-10T00:52:06.213Z,100134.02
2017-10-10T00:55:07.807Z,100130.08
2017-10-10T00:58:09.335Z,100124.50
2017-10-10T01:01:11.031Z,100125.96
2017-10-10T01:04:12.545Z,100122.48
2017-10-10T01:07:14.136Z,100125.96
2017-10-10T01:10:15.681Z,100132.64
2017-10-10T01:13:18.015Z,100119.73
2017-10-10T01:16:19.600Z,100112.82
2017-10-10T01:19:21.265Z,100117.72
2017-10-10T01:22:22.856Z,100105.59
2017-10-10T01:25:25.111Z,100102.69
2017-10-10T01:28:27.422Z,100100.63
2017-10-10T01:31:29.010Z,100095.10
2017-10-10T01:34:30.620Z,100094.37
2017-10-10T01:37:32.184Z,100092.44
2017-10-10T01:40:33.860Z,100088.56
2017-10-10T01:43:35.468Z,100091.56
2017-10-10T01:46:37.721Z,100086.01
2017-10-10T01:49:39.357Z,100088.81
2017-10-10T01:52:40.875Z,100072.03
2017-10-10T01:55:42.514Z,100082.20
2017-10-10T01:58:44.829Z,100078.25
2017-10-10T02:01:46.370Z,100074.05
2017-10-10T02:04:48.171Z,100085.16
2017-10-10T02:07:49.683Z,100069.83
2017-10-10T02:10:51.278Z,100078.63
2017-10-10T02:13:52.840Z,100077.31
2017-10-10T02:20:02.566Z,100070.02
2017-10-10T02:23:04.091Z,100068.39
2017-10-10T02:26:06.379Z,100056.89
2017-10-10T02:29:07.916Z,100059.59
2017-10-10T02:32:10.200Z,100055.77
2017-10-10T02:35:11.701Z,100046.83
2017-10-10T02:38:13.295Z,100044.47
2017-10-10T02:41:15.564Z,100045.98
2017-10-10T02:44:17.071Z,100046.55
2017-10-10T02:47:18.692Z,100037.42
2017-10-10T02:50:22.106Z,100034.78
2017-10-10T02:53:23.697Z,100036.34
2017-10-10T02:56:25.225Z,100022.73
2017-10-10T02:59:26.732Z,100042.18
2017-10-10T03:02:28.249Z,100041.91
2017-10-10T03:05:29.803Z,100037.16
2017-10-10T03:08:31.341Z,100046.62
2017-10-10T03:11:33.059Z,100029.36
2017-10-10T03:14:34.622Z,100040.34
2017-10-10T03:17:36.136Z,100043.82
2017-10-10T03:20:37.664Z,100038.75
2017-10-10T03:23:39.132Z,100039.42
2017-10-10T03:26:40.694Z,100040.66
2017-10-10T03:29:42.288Z,100043.09
2017-10-10T03:32:44.525Z,100037.13
2017-10-10T03:35:46.079Z,100038.30
2017-10-10T03:38:48.483Z,100016.53
2017-10-10T03:41:50.788Z,100017.06
2017-10-10T03:44:53.034Z,100007.66
2017-10-10T03:47:55.345Z,100004.39
2017-10-10T03:50:56.889Z,100011.19
2017-10-10T03:53:58.400Z,100016.37
2017-10-10T03:56:59.999Z,100026.59
2017-10-10T04:00:02.524Z,100013.48
2017-10-10T04:03:04.088Z,100007.81
2017-10-10T04:06:05.665Z,100012.84
2017-10-10T04:09:08.030Z,100005.59
2017-10-10T04:12:09.662Z,100007.02
2017-10-10T04:15:11.228Z,99999.91
2017-10-10T04:18:12.748Z,100001.80
2017-10-10T04:21:14.338Z,100007.52
2017-10-10T04:24:16.627Z,100005.55
2017-10-10T04:27:18.845Z,100004.25
2017-10-10T04:30:20.464Z,99999.22
2017-10-10T04:33:22.839Z,100000.66
2017-10-10T04:36:24.399Z,100000.44
2017-10-10T04:39:26.699Z,99989.57
2017-10-10T04:42:28.247Z,99996.05
2017-10-10T04:45:29.863Z,100004.90
2017-10-10T04:48:32.108Z,99992.71
2017-10-10T04:51:33.622Z,99997.91
2017-10-10T04:54:35.157Z,100001.94
2017-10-10T04:57:37.524Z,100005.88
2017-10-10T05:00:39.822Z,100006.91
2017-10-10T05:03:41.314Z,100001.59
2017-10-10T05:06:42.893Z,100004.94
2017-10-10T05:09:44.393Z,100008.59
2017-10-10T05:12:45.976Z,100007.27
2017-10-10T05:15:47.503Z,100011.80
2017-10-10T05:18:49.057Z,99999.76
2017-10-10T05:21:50.569Z,99992.70
2017-10-10T05:24:52.168Z,100000.20
2017-10-10T05:27:53.717Z,99985.07
2017-10-10T05:30:55.321Z,100004.42
2017-10-10T05:33:56.855Z,99997.00
2017-10-10T05:36:58.435Z,100008.05
2017-10-10T05:40:00.012Z,99993.10
2017-10-10T05:43:02.313Z,99999.41
2017-10-10T05:46:03.903Z,99991.24
2017-10-10T05:49:05.414Z,99999.07
2017-10-10T05:52:07.000Z,99996.30
2017-10-10T05:55:08.508Z,99996.20
2017-10-10T05:58:10.096Z,100011.27
2017-10-10T06:01:11.640Z,100002.73
2017-10-10T06:04:13.238Z,100012.56
2017-10-10T06:07:14.816Z,100008.98
2017-10-10T06:10:17.121Z,100000.48
2017-10-10T06:13:18.641Z,99998.41
2017-10-10T06:16:23.521Z,100000.92
2017-10-10T06:19:25.117Z,100015.04
2017-10-10T06:22:27.598Z,100019.55
2017-10-10T06:25:29.307Z,100016.13
2017-10-10T06:28:30.881Z,100023.28
2017-10-10T06:31:33.488Z,100024.16
2017-10-10T06:34:35.121Z,100035.26
2017-10-10T06:37:36.708Z,100026.95
2017-10-10T06:40:38.282Z,100031.45
2017-10-10T06:43:40.493Z,100040.97
2017-10-10T06:46:42.069Z,100037.00
2017-10-10T06:49:43.653Z,100040.63
2017-10-10T06:52:45.173Z,100038.36
2017-10-10T06:55:46.700Z,100047.52
2017-10-10T06:58:50.490Z,100049.66
2017-10-10T07:01:54.313Z,100051.77
2017-10-10T07:04:58.711Z,100058.79
2017-10-10T07:08:01.056Z,100049.70
2017-10-10T07:11:03.911Z,100056.54
2017-10-10T07:14:05.469Z,100060.98
2017-10-10T07:17:07.047Z,100067.25
2017-10-10T07:34:12.465Z,100092.43
2017-10-10T07:37:25.337Z,100097.34
2017-10-10T07:40:35.929Z,100089.85
2017-10-10T07:43:38.318Z,100092.84
2017-10-10T07:46:40.460Z,100095.33
2017-10-10T07:49:42.049Z,100098.06
2017-10-10T07:52:43.615Z,100091.92
2017-10-10T07:55:45.170Z,100090.04
2017-10-10T07:58:46.659Z,100090.06
2017-10-10T08:01:48.245Z,100093.01
2017-10-10T08:04:50.754Z,100098.94
2017-10-10T08:07:52.395Z,100105.30
2017-10-10T08:10:53.975Z,100091.18
2017-10-10T08:13:55.506Z,100099.39
2017-10-10T08:16:57.041Z,100098.76
2017-10-10T08:19:58.596Z,100101.58
2017-10-10T08:23:00.176Z,100102.81
2017-10-10T08:26:05.570Z,100102.72
2017-10-10T08:29:07.683Z,100105.94
2017-10-10T08:32:09.372Z,100095.33
2017-10-10T08:35:11.656Z,100108.28
2017-10-10T08:38:13.247Z,100110.64
2017-10-10T08:41:14.759Z,100118.70
2017-10-10T08:44:16.301Z,100109.94
2017-10-10T08:47:18.530Z,100106.89
2017-10-10T08:50:20.046Z,100117.12
2017-10-10T08:53:22.384Z,100114.52
2017-10-10T08:56:23.975Z,100117.16
2017-10-10T08:59:26.284Z,100118.88
2017-10-10T09:02:27.843Z,100125.34
2017-10-10T09:05:29.377Z,100117.63
2017-10-10T09:08:30.906Z,100112.27
2017-10-10T09:11:32.593Z,100114.38
2017-10-10T09:14:34.062Z,100113.17
2017-10-10T09:17:35.683Z,100104.77
2017-10-10T09:20:37.976Z,100109.98
2017-10-10T09:23:39.566Z,100102.30
2017-10-10T09:26:41.349Z,100107.66
2017-10-10T09:29:42.881Z,100107.06
2017-10-10T09:32:44.412Z,100119.15
2017-10-10T09:35:45.965Z,100122.20
2017-10-10T09:41:56.736Z,100141.22
2017-10-10T09:44:59.040Z,100130.72
2017-10-10T09:48:00.663Z,100128.08
2017-10-10T09:51:03.595Z,100124.31
2017-10-10T09:54:05.185Z,100126.28
2017-10-10T09:57:06.730Z,100134.78
2017-10-10T10:00:08.278Z,100136.13
2017-10-10T10:03:09.832Z,100137.05
2017-10-10T10:06:11.357Z,100141.05
2017-10-10T10:09:12.885Z,100147.77
2017-10-10T10:12:14.479Z,100143.11
2017-10-10T10:15:16.021Z,100152.30
2017-10-10T10:18:17.594Z,100156.73
2017-10-10T10:21:19.836Z,100143.25
2017-10-10T10:24:21.348Z,100146.02
2017-10-10T10:27:22.916Z,100142.79
2017-10-10T10:30:26.329Z,100138.84
2017-10-10T10:33:27.878Z,100134.52
2017-10-10T10:36:30.396Z,100141.80
2017-10-10T10:39:31.962Z,100128.94
2017-10-10T10:42:33.521Z,100135.87
2017-10-10T10:45:35.100Z,100119.34
2017-10-10T10:48:37.295Z,100132.20
2017-10-10T10:51:39.598Z,100138.47
2017-10-10T10:54:44.182Z,100130.59
2017-10-10T10:57:46.546Z,100138.77
2017-10-10T11:00:48.712Z,100125.27
2017-10-10T11:03:51.741Z,100128.71
2017-10-10T11:06:54.566Z,100130.23
2017-10-10T11:09:56.942Z,100135.25
2017-10-10T11:12:58.537Z,100134.31
2017-10-10T11:16:00.861Z,100131.29
2017-10-10T11:19:02.488Z,100135.54
2017-10-10T11:22:04.724Z,100126.80
2017-10-10T11:25:09.794Z,100117.41
2017-10-10T11:28:13.381Z,100111.69
2017-10-10T11:31:14.989Z,100127.84
2017-10-10T11:34:16.550Z,100136.70
2017-10-10T11:37:19.546Z,100126.17
2017-10-10T11:40:21.284Z,100131.95
2017-10-10T11:43:23.492Z,100154.25
2017-10-10T11:46:25.945Z,100139.13
2017-10-10T11:49:27.493Z,100125.47
2017-10-10T11:52:36.200Z,100132.25
2017-10-10T11:55:37.787Z,100134.06
2017-10-10T11:58:40.327Z,100135.56
2017-10-10T12:01:47.737Z,100135.77
2017-10-10T12:04:50.758Z,100139.22
2017-10-10T12:07:53.775Z,100137.55
2017-10-10T12:10:55.493Z,100127.08
2017-10-10T12:13:59.262Z,100129.25
2017-10-10T12:17:00.906Z,100126.30
2017-10-10T12:20:05.871Z,100116.16
2017-10-10T12:23:11.202Z,100118.22
2017-10-10T12:26:13.290Z,100120.41
2017-10-10T12:29:16.603Z,100114.10
2017-10-10T12:32:19.788Z,100112.21
2017-10-10T12:35:24.280Z,100118.06
2017-10-10T12:38:25.932Z,100117.43
2017-10-10T12:41:31.408Z,100123.09
2017-10-10T12:44:33.519Z,100117.33
2017-10-10T12:47:35.871Z,100117.29
2017-10-10T12:50:37.568Z,100121.05
2017-10-10T12:53:39.678Z,100111.94
2017-10-10T12:56:57.733Z,100118.08
2017-10-10T12:59:59.205Z,100112.13
2017-10-10T13:03:01.539Z,100117.66
2017-10-10T13:06:04.616Z,100121.01
2017-10-10T13:09:06.116Z,100127.63
2017-10-10T13:12:08.514Z,100128.13
2017-10-10T13:15:10.008Z,100131.30
2017-10-10T13:18:11.526Z,100127.13
2017-10-10T13:21:13.021Z,100123.99
2017-10-10T13:24:14.558Z,100122.39
2017-10-10T13:27:16.074Z,100115.45
2017-10-10T13:30:18.393Z,100122.33
2017-10-10T13:33:19.929Z,100113.00
2017-10-10T13:36:21.537Z,100111.50
2017-10-10T13:39:23.138Z,100112.13
2017-10-10T13:42:24.645Z,100101.54
2017-10-10T13:45:26.176Z,100111.48
2017-10-10T13:48:27.663Z,100105.70
2017-10-10T13:51:29.934Z,100114.38
2017-10-10T13:54:32.147Z,100115.60
2017-10-10T13:57:33.788Z,100121.70
2017-10-10T14:00:35.347Z,100122.38
2017-10-10T14:03:36.910Z,100117.31
2017-10-10T14:06:38.502Z,100116.17
2017-10-10T14:12:48.268Z,100110.30
2017-10-10T14:15:49.856Z,100110.39
2017-10-10T14:18:52.241Z,100114.02
2017-10-10T14:21:53.736Z,100120.08
2017-10-10T14:24:55.270Z,100117.29
2017-10-10T14:27:56.840Z,100110.31
2017-10-10T14:30:58.377Z,100106.09
2017-10-10T14:33:59.942Z,100095.94
2017-10-10T14:37:01.483Z,100101.66
2017-10-10T14:40:03.592Z,100111.70
2017-10-10T14:43:05.085Z,100116.36
2017-10-10T14:46:07.461Z,100111.41
2017-10-10T14:49:09.683Z,100111.31
2017-10-10T14:52:11.215Z,100117.88
2017-10-10T14:55:12.814Z,100121.76
2017-10-10T14:58:14.342Z,100124.45
2017-10-10T15:01:15.873Z,100120.42
2017-10-10T15:04:17.379Z,100128.43
2017-10-10T15:07:18.934Z,100138.91
2017-10-10T15:10:20.458Z,100125.86
2017-10-10T15:13:22.051Z,100147.49
2017-10-10T15:16:23.617Z,100146.75
2017-10-10T15:19:25.812Z,100146.20
2017-10-10T15:22:27.372Z,100147.12
2017-10-10T15:25:28.871Z,100148.34
2017-10-10T15:28:30.469Z,100156.72
2017-10-10T15:31:31.989Z,100164.59
2017-10-10T15:34:33.533Z,100160.25
2017-10-10T15:37:35.046Z,100162.87
2017-10-10T15:40:36.597Z,100163.01
2017-10-10T15:43:39.193Z,100163.56
2017-10-10T15:46:41.282Z,100169.45
2017-10-10T15:49:42.934Z,100171.00
2017-10-10T15:52:44.410Z,100171.80
2017-10-10T15:55:46.017Z,100171.56
2017-10-10T15:58:47.672Z,100166.02
2017-10-10T16:01:49.875Z,100164.85
2017-10-10T16:04:52.495Z,100172.28
2017-10-10T16:07:54.071Z,100173.03
2017-10-10T16:10:55.600Z,100175.63
2017-10-10T16:13:57.937Z,100177.66
2017-10-10T16:16:59.561Z,100178.33
2017-10-10T16:20:01.052Z,100180.56
2017-10-10T16:23:02.709Z,100178.36
2017-10-10T16:26:04.350Z,100176.91
2017-10-10T16:29:05.976Z,100174.09
2017-10-10T16:32:08.387Z,100168.35
2017-10-10T16:35:10.007Z,100182.46
2017-10-10T16:41:20.801Z,100191.85
2017-10-10T16:44:23.125Z,100176.84
2017-10-10T16:47:24.683Z,100174.88
2017-10-10T16:50:27.089Z,100163.36
2017-10-10T16:53:29.473Z,100161.39
2017-10-10T16:56:30.949Z,100164.14
2017-10-10T16:59:33.268Z,100159.97
2017-10-10T17:02:34.826Z,100169.20
2017-10-10T17:05:36.330Z,100163.01
2017-10-10T17:08:38.656Z,100160.92
2017-10-10T17:11:49.290Z,100173.02
2017-10-10T17:14:57.094Z,100171.31
2017-10-10T17:17:59.280Z,100179.73
2017-10-10T17:21:00.824Z,100188.58
2017-10-10T17:24:02.427Z,100191.54
2017-10-10T17:27:05.154Z,100184.22
2017-10-10T17:30:08.517Z,100184.55
2017-10-10T17:33:22.608Z,100185.02
2017-10-10T17:36:26.136Z,100187.71
2017-10-10T17:43:08.980Z,100217.52
2017-10-10T17:46:14.828Z,100210.03
2017-10-10T17:49:19.466Z,100207.43
2017-10-10T17:52:26.479Z,100211.65
2017-10-10T18:00:50.342Z,100195.60
2017-10-10T18:05:31.434Z,100193.02
2017-10-10T18:08:33.592Z,100186.61
2017-10-10T18:11:40.076Z,100196.06
2017-10-10T18:14:50.123Z,100190.06
2017-10-10T18:17:54.163Z,100193.95
2017-10-10T18:21:04.586Z,100200.74
2017-10-10T18:24:06.553Z,100195.63
2017-10-10T18:27:15.192Z,100210.83
2017-10-10T18:30:33.346Z,100208.66
2017-10-10T18:33:58.914Z,100204.48
2017-10-10T18:55:29.086Z,100193.46
2017-10-10T18:58:32.416Z,100191.78
2017-10-10T19:03:18.674Z,100195.30
2017-10-10T19:06:24.858Z,100177.58
2017-10-10T19:23:53.435Z,100188.08
2017-10-10T19:26:55.144Z,100188.88
2017-10-10T19:30:05.345Z,100191.51
2017-10-10T19:33:07.967Z,100198.47
2017-10-10T19:36:09.618Z,100196.09
2017-10-10T19:39:15.018Z,100191.27
2017-10-10T19:42:16.633Z,100192.36
2017-10-10T19:45:25.380Z,100177.45
2017-10-10T19:55:47.524Z,100188.55
2017-10-10T19:58:50.047Z,100200.66
2017-10-10T20:01:51.563Z,100212.31
2017-10-10T20:04:53.534Z,100218.14
2017-10-10T20:07:55.565Z,100205.83
2017-10-10T20:10:57.837Z,100219.95
2017-10-10T20:13:59.410Z,100207.70
2017-10-10T20:17:01.786Z,100205.24
2017-10-10T20:20:04.086Z,100205.58
2017-10-10T20:23:06.349Z,100214.73
2017-10-10T20:26:07.917Z,100210.34
2017-10-10T20:29:10.421Z,100220.13
2017-10-10T20:32:11.967Z,100222.37
2017-10-10T20:38:21.734Z,100223.05
2017-10-10T20:41:23.314Z,100222.16
2017-10-10T20:44:24.853Z,100218.74
2017-10-10T20:47:26.559Z,100212.88
2017-10-10T20:50:28.450Z,100226.61
2017-10-10T20:53:30.076Z,100218.30
2017-10-10T20:56:31.610Z,100225.89
2017-10-10T20:59:33.227Z,100216.16
2017-10-10T21:02:35.551Z,100234.16
2017-10-10T21:05:37.876Z,100242.97
2017-10-10T21:08:39.444Z,100236.45
2017-10-10T21:11:40.970Z,100246.95
2017-10-10T21:14:42.544Z,100245.24
2017-10-10T21:17:44.080Z,100242.78
2017-10-10T21:20:45.759Z,100241.50
2017-10-10T21:23:47.288Z,100234.04
2017-10-10T21:26:48.881Z,100230.98
2017-10-10T21:29:50.430Z,100230.45
2017-10-10T21:32:51.912Z,100236.84
2017-10-10T21:35:54.202Z,100231.66
2017-10-10T21:38:55.694Z,100228.51
2017-10-10T21:41:57.216Z,100230.48
2017-10-10T21:48:07.149Z,100222.94
2017-10-10T21:51:08.644Z,100233.57
2017-10-10T21:54:10.168Z,100232.50
2017-10-10T21:57:12.534Z,100224.53
2017-10-10T22:00:14.964Z,100209.48
2017-10-10T22:07:21.732Z,100218.03
2017-10-10T22:10:24.025Z,100211.38
2017-10-10T22:16:33.803Z,100207.21
2017-10-10T22:19:35.453Z,100198.85
2017-10-10T22:22:36.969Z,100198.31
2017-10-10T22:25:39.281Z,100186.40
2017-10-10T22:28:40.781Z,100202.98
2017-10-10T22:31:43.068Z,100191.05
2017-10-10T22:34:45.455Z,100190.81
2017-10-10T22:37:47.063Z,100192.73
2017-10-10T22:40:48.684Z,100192.08
2017-10-10T22:43:50.175Z,100197.38
2017-10-10T22:46:51.794Z,100192.66
2017-10-10T22:53:02.273Z,100194.77
2017-10-10T22:56:03.898Z,100205.02
2017-10-10T22:59:05.444Z,100196.31
2017-10-10T23:02:07.450Z,100205.80
2017-10-10T23:05:09.038Z,100201.69
2017-10-10T23:08:10.552Z,100196.93
2017-10-10T23:11:12.184Z,100203.34
2017-10-10T23:14:13.700Z,100207.23
2017-10-10T23:17:15.236Z,100198.12
2017-10-10T23:20:16.745Z,100197.55
2017-10-10T23:23:18.281Z,100192.04
2017-10-10T23:26:19.833Z,100197.25
2017-10-10T23:29:21.341Z,100195.48
2017-10-10T23:32:22.807Z,100200.36
2017-10-10T23:35:24.428Z,100197.77
2017-10-10T23:38:26.743Z,100202.73
2017-10-10T23:41:28.402Z,100202.23
2017-10-10T23:44:29.933Z,100194.77
2017-10-10T23:47:31.440Z,100198.98
2017-10-10T23:50:32.978Z,100203.09
2017-10-10T23:53:35.289Z,100209.20
2017-10-10T23:56:36.919Z,100208.23
2017-10-10T23:59:38.442Z,100218.02
